Terminal Aerodrome Forecast
Issued by NWS

Home | Current Version | Previous Version | Graphics & Text | Print | Product List | Glossary On
Versions: 1 2 3 4 5 6 7 8 9 10 11 12 13 14 15 16 17 18 19 20 21 22 23 24 25 26
045
FTUS43 KLOT 150553
TAFDPA
TAF
KDPA 150553Z 1506/1606 VRB03KT 6SM BR FEW050 BKN120
     FM150900 VRB03KT 4SM BR FEW050 BKN120
     FM151300 33004KT P6SM SCT035
     FM152100 03006KT P6SM BKN050=

USA.gov is the U.S. government's official web portal to all federal, state and local government web resources and services.